sensor_id;sensor_type;location;lat;lon;timestamp;pressure;altitude;pressure_sealevel;temperature;humidity
78016;BME280;67223;51.102;5.882;2024-01-25T00:00:51;102227.41;;;8.64;100.00
78016;BME280;67223;51.102;5.882;2024-01-25T00:03:16;102222.16;;;8.62;100.00
78016;BME280;67223;51.102;5.882;2024-01-25T00:05:43;102222.88;;;8.66;100.00
78016;BME280;67223;51.102;5.882;2024-01-25T00:08:08;102223.31;;;8.57;100.00
78016;BME280;67223;51.102;5.882;2024-01-25T00:10:34;102235.00;;;8.54;100.00
78016;BME280;67223;51.102;5.882;2024-01-25T00:12:59;102228.56;;;8.58;100.00
78016;BME280;67223;51.102;5.882;2024-01-25T00:15:24;102232.97;;;8.59;100.00
78016;BME280;67223;51.102;5.882;2024-01-25T00:17:50;102224.81;;;8.62;100.00
78016;BME280;67223;51.102;5.882;2024-01-25T00:20:15;102223.75;;;8.67;100.00
78016;BME280;67223;51.102;5.882;2024-01-25T00:22:41;102220.28;;;8.64;100.00
78016;BME280;67223;51.102;5.882;2024-01-25T00:25:07;102229.19;;;8.63;100.00
78016;BME280;67223;51.102;5.882;2024-01-25T00:27:32;102224.91;;;8.61;100.00
78016;BME280;67223;51.102;5.882;2024-01-25T00:29:57;102236.72;;;8.55;100.00
78016;BME280;67223;51.102;5.882;2024-01-25T00:32:23;102217.28;;;8.53;100.00
78016;BME280;67223;51.102;5.882;2024-01-25T00:34:48;102213.00;;;8.51;100.00
78016;BME280;67223;51.102;5.882;2024-01-25T00:37:14;102217.47;;;8.50;100.00
78016;BME280;67223;51.102;5.882;2024-01-25T00:39:40;102225.69;;;8.46;100.00
78016;BME280;67223;51.102;5.882;2024-01-25T00:42:06;102228.47;;;8.43;100.00
78016;BME280;67223;51.102;5.882;2024-01-25T00:44:32;102225.28;;;8.36;100.00
78016;BME280;67223;51.102;5.882;2024-01-25T00:46:58;102228.09;;;8.33;100.00
78016;BME280;67223;51.102;5.882;2024-01-25T00:49:24;102216.91;;;8.44;100.00
78016;BME280;67223;51.102;5.882;2024-01-25T00:51:50;102207.59;;;8.35;100.00
78016;BME280;67223;51.102;5.882;2024-01-25T00:54:19;102215.72;;;8.32;100.00
78016;BME280;67223;51.102;5.882;2024-01-25T00:56:44;102216.66;;;8.31;100.00
78016;BME280;67223;51.102;5.882;2024-01-25T00:59:10;102207.59;;;8.35;100.00
78016;BME280;67223;51.102;5.882;2024-01-25T01:01:36;102204.13;;;8.33;100.00
78016;BME280;67223;51.102;5.882;2024-01-25T01:04:02;102198.66;;;8.36;100.00
78016;BME280;67223;51.102;5.882;2024-01-25T01:06:28;102210.88;;;8.40;100.00
78016;BME280;67223;51.102;5.882;2024-01-25T01:08:53;102208.34;;;8.37;100.00
78016;BME280;67223;51.102;5.882;2024-01-25T01:11:19;102205.84;;;8.34;100.00
78016;BME280;67223;51.102;5.882;2024-01-25T01:13:44;102205.94;;;8.33;100.00
78016;BME280;67223;51.102;5.882;2024-01-25T01:16:10;102201.75;;;8.27;100.00
78016;BME280;67223;51.102;5.882;2024-01-25T01:18:35;102205.50;;;8.23;100.00
78016;BME280;67223;51.102;5.882;2024-01-25T01:21:01;102202.31;;;8.16;100.00
78016;BME280;67223;51.102;5.882;2024-01-25T01:23:27;102218.47;;;8.12;100.00
78016;BME280;67223;51.102;5.882;2024-01-25T01:25:52;102206.19;;;8.09;100.00
78016;BME280;67223;51.102;5.882;2024-01-25T01:28:18;102191.63;;;7.99;100.00
78016;BME280;67223;51.102;5.882;2024-01-25T01:30:43;102198.16;;;7.92;100.00
78016;BME280;67223;51.102;5.882;2024-01-25T01:33:09;102204.34;;;7.93;100.00
78016;BME280;67223;51.102;5.882;2024-01-25T01:35:34;102210.63;;;7.92;100.00
78016;BME280;67223;51.102;5.882;2024-01-25T01:38:00;102208.38;;;7.83;100.00
78016;BME280;67223;51.102;5.882;2024-01-25T01:40:25;102211.41;;;7.75;100.00
78016;BME280;67223;51.102;5.882;2024-01-25T01:42:51;102216.75;;;7.75;100.00
78016;BME280;67223;51.102;5.882;2024-01-25T01:45:16;102203.38;;;7.76;100.00
78016;BME280;67223;51.102;5.882;2024-01-25T01:47:42;102203.22;;;7.79;100.00
78016;BME280;67223;51.102;5.882;2024-01-25T01:50:09;102210.19;;;7.63;100.00
78016;BME280;67223;51.102;5.882;2024-01-25T01:52:35;102206.38;;;7.69;100.00
78016;BME280;67223;51.102;5.882;2024-01-25T01:55:01;102202.59;;;7.56;100.00
78016;BME280;67223;51.102;5.882;2024-01-25T01:57:27;102206.13;;;7.56;100.00
78016;BME280;67223;51.102;5.882;2024-01-25T01:59:52;102218.44;;;7.57;100.00
78016;BME280;67223;51.102;5.882;2024-01-25T02:02:18;102217.97;;;7.49;100.00
78016;BME280;67223;51.102;5.882;2024-01-25T02:04:44;102219.09;;;7.44;100.00
78016;BME280;67223;51.102;5.882;2024-01-25T02:07:09;102223.19;;;7.32;100.00
78016;BME280;67223;51.102;5.882;2024-01-25T02:09:35;102224.47;;;7.23;100.00
78016;BME280;67223;51.102;5.882;2024-01-25T02:12:01;102222.66;;;7.24;100.00
78016;BME280;67223;51.102;5.882;2024-01-25T02:14:27;102220.72;;;7.27;100.00
78016;BME280;67223;51.102;5.882;2024-01-25T02:16:53;102225.31;;;7.24;100.00
78016;BME280;67223;51.102;5.882;2024-01-25T02:19:18;102231.50;;;7.24;100.00
78016;BME280;67223;51.102;5.882;2024-01-25T02:21:44;102242.94;;;7.26;100.00
78016;BME280;67223;51.102;5.882;2024-01-25T02:24:09;102245.81;;;7.22;100.00
78016;BME280;67223;51.102;5.882;2024-01-25T02:26:35;102249.88;;;7.10;100.00
78016;BME280;67223;51.102;5.882;2024-01-25T02:29:01;102245.69;;;7.05;100.00
78016;BME280;67223;51.102;5.882;2024-01-25T02:31:27;102254.47;;;7.07;100.00
78016;BME280;67223;51.102;5.882;2024-01-25T02:33:52;102246.09;;;6.96;100.00
78016;BME280;67223;51.102;5.882;2024-01-25T02:36:17;102249.72;;;6.93;100.00
78016;BME280;67223;51.102;5.882;2024-01-25T02:38:43;102237.66;;;7.06;100.00
78016;BME280;67223;51.102;5.882;2024-01-25T02:41:08;102242.56;;;7.15;100.00
78016;BME280;67223;51.102;5.882;2024-01-25T02:43:33;102239.38;;;7.07;100.00
78016;BME280;67223;51.102;5.882;2024-01-25T02:45:59;102242.50;;;6.97;100.00
78016;BME280;67223;51.102;5.882;2024-01-25T02:48:24;102237.06;;;7.00;100.00
78016;BME280;67223;51.102;5.882;2024-01-25T02:50:49;102243.69;;;7.10;100.00
78016;BME280;67223;51.102;5.882;2024-01-25T02:53:15;102248.47;;;7.02;100.00
78016;BME280;67223;51.102;5.882;2024-01-25T02:55:40;102251.19;;;7.00;100.00
78016;BME280;67223;51.102;5.882;2024-01-25T02:58:05;102247.16;;;6.91;100.00
78016;BME280;67223;51.102;5.882;2024-01-25T03:03:06;102258.81;;;6.87;100.00
78016;BME280;67223;51.102;5.882;2024-01-25T03:05:34;102262.31;;;6.68;100.00
78016;BME280;67223;51.102;5.882;2024-01-25T03:08:00;102258.28;;;6.59;100.00
78016;BME280;67223;51.102;5.882;2024-01-25T03:10:25;102264.31;;;6.63;100.00
78016;BME280;67223;51.102;5.882;2024-01-25T03:12:51;102261.59;;;6.64;100.00
78016;BME280;67223;51.102;5.882;2024-01-25T03:15:16;102255.22;;;6.48;100.00
78016;BME280;67223;51.102;5.882;2024-01-25T03:17:41;102255.22;;;6.48;100.00
78016;BME280;67223;51.102;5.882;2024-01-25T03:20:07;102265.91;;;6.46;100.00
78016;BME280;67223;51.102;5.882;2024-01-25T03:22:32;102272.13;;;6.45;100.00
78016;BME280;67223;51.102;5.882;2024-01-25T03:24:58;102266.88;;;6.44;100.00
78016;BME280;67223;51.102;5.882;2024-01-25T03:27:23;102262.97;;;6.53;100.00
78016;BME280;67223;51.102;5.882;2024-01-25T03:29:49;102264.22;;;6.44;100.00
78016;BME280;67223;51.102;5.882;2024-01-25T03:32:14;102265.97;;;6.45;100.00
78016;BME280;67223;51.102;5.882;2024-01-25T03:34:40;102249.38;;;6.40;100.00
78016;BME280;67223;51.102;5.882;2024-01-25T03:37:05;102246.47;;;6.46;100.00
78016;BME280;67223;51.102;5.882;2024-01-25T03:39:30;102248.97;;;6.49;100.00
78016;BME280;67223;51.102;5.882;2024-01-25T03:41:56;102265.44;;;6.37;100.00
78016;BME280;67223;51.102;5.882;2024-01-25T03:44:21;102265.78;;;6.28;100.00
78016;BME280;67223;51.102;5.882;2024-01-25T03:46:47;102260.56;;;6.26;100.00
78016;BME280;67223;51.102;5.882;2024-01-25T03:49:12;102266.59;;;6.30;100.00
78016;BME280;67223;51.102;5.882;2024-01-25T03:51:38;102266.78;;;6.25;100.00
78016;BME280;67223;51.102;5.882;2024-01-25T03:54:03;102264.81;;;6.30;100.00
78016;BME280;67223;51.102;5.882;2024-01-25T03:56:28;102266.16;;;6.19;100.00
78016;BME280;67223;51.102;5.882;2024-01-25T03:58:54;102271.97;;;6.07;100.00
78016;BME280;67223;51.102;5.882;2024-01-25T04:01:19;102265.75;;;6.08;100.00
78016;BME280;67223;51.102;5.882;2024-01-25T04:03:45;102257.22;;;5.99;100.00
78016;BME280;67223;51.102;5.882;2024-01-25T04:06:10;102264.06;;;6.05;100.00
78016;BME280;67223;51.102;5.882;2024-01-25T04:08:36;102253.78;;;5.97;100.00
78016;BME280;67223;51.102;5.882;2024-01-25T04:11:01;102261.53;;;6.02;100.00
78016;BME280;67223;51.102;5.882;2024-01-25T04:13:26;102262.41;;;6.02;100.00
78016;BME280;67223;51.102;5.882;2024-01-25T04:15:52;102264.94;;;6.05;100.00
78016;BME280;67223;51.102;5.882;2024-01-25T04:18:17;102260.91;;;5.95;100.00
78016;BME280;67223;51.102;5.882;2024-01-25T04:20:43;102256.47;;;5.96;100.00
78016;BME280;67223;51.102;5.882;2024-01-25T04:23:09;102252.78;;;6.00;100.00
78016;BME280;67223;51.102;5.882;2024-01-25T04:25:34;102246.84;;;5.93;100.00
78016;BME280;67223;51.102;5.882;2024-01-25T04:28:00;102243.16;;;5.97;100.00
78016;BME280;67223;51.102;5.882;2024-01-25T04:30:25;102235.25;;;5.96;100.00
78016;BME280;67223;51.102;5.882;2024-01-25T04:32:51;102240.03;;;5.86;100.00
78016;BME280;67223;51.102;5.882;2024-01-25T04:35:16;102245.28;;;5.88;100.00
78016;BME280;67223;51.102;5.882;2024-01-25T04:37:42;102247.84;;;5.91;100.00
78016;BME280;67223;51.102;5.882;2024-01-25T04:40:07;102248.00;;;5.86;100.00
78016;BME280;67223;51.102;5.882;2024-01-25T04:42:33;102242.97;;;5.79;100.00
78016;BME280;67223;51.102;5.882;2024-01-25T04:44:58;102243.75;;;5.82;100.00
78016;BME280;67223;51.102;5.882;2024-01-25T04:47:24;102241.38;;;5.75;100.00
78016;BME280;67223;51.102;5.882;2024-01-25T04:49:49;102239.31;;;5.83;100.00
78016;BME280;67223;51.102;5.882;2024-01-25T04:52:14;102228.16;;;5.73;100.00
78016;BME280;67223;51.102;5.882;2024-01-25T04:54:40;102233.47;;;5.73;100.00
78016;BME280;67223;51.102;5.882;2024-01-25T04:57:05;102223.00;;;5.70;100.00
78016;BME280;67223;51.102;5.882;2024-01-25T04:59:35;102231.44;;;5.80;100.00
78016;BME280;67223;51.102;5.882;2024-01-25T05:02:01;102242.09;;;5.78;100.00
78016;BME280;67223;51.102;5.882;2024-01-25T05:04:28;102230.81;;;5.73;100.00
78016;BME280;67223;51.102;5.882;2024-01-25T05:06:54;102230.22;;;5.67;100.00
78016;BME280;67223;51.102;5.882;2024-01-25T05:09:20;102222.28;;;5.67;100.00
78016;BME280;67223;51.102;5.882;2024-01-25T05:11:45;102228.44;;;5.67;100.00
78016;BME280;67223;51.102;5.882;2024-01-25T05:14:11;102232.91;;;5.65;100.00
78016;BME280;67223;51.102;5.882;2024-01-25T05:16:36;102238.44;;;5.59;100.00
78016;BME280;67223;51.102;5.882;2024-01-25T05:19:02;102223.38;;;5.61;100.00
78016;BME280;67223;51.102;5.882;2024-01-25T05:21:27;102229.94;;;5.51;100.00
78016;BME280;67223;51.102;5.882;2024-01-25T05:23:53;102234.19;;;5.55;100.00
78016;BME280;67223;51.102;5.882;2024-01-25T05:26:18;102238.44;;;5.59;100.00
78016;BME280;67223;51.102;5.882;2024-01-25T05:28:44;102229.56;;;5.60;100.00
78016;BME280;67223;51.102;5.882;2024-01-25T05:31:09;102228.75;;;5.58;100.00
78016;BME280;67223;51.102;5.882;2024-01-25T05:33:41;102226.28;;;5.53;100.00
78016;BME280;67223;51.102;5.882;2024-01-25T05:36:07;102233.50;;;5.50;100.00
78016;BME280;67223;51.102;5.882;2024-01-25T05:38:33;102250.09;;;5.55;100.00
78016;BME280;67223;51.102;5.882;2024-01-25T05:40:58;102246.06;;;5.45;100.00
78016;BME280;67223;51.102;5.882;2024-01-25T05:43:24;102250.44;;;5.46;100.00
78016;BME280;67223;51.102;5.882;2024-01-25T05:45:50;102248.84;;;5.42;100.00
78016;BME280;67223;51.102;5.882;2024-01-25T05:48:15;102247.22;;;5.38;100.00
78016;BME280;67223;51.102;5.882;2024-01-25T05:50:41;102242.94;;;5.34;100.00
78016;BME280;67223;51.102;5.882;2024-01-25T05:53:06;102246.53;;;5.33;100.00
78016;BME280;67223;51.102;5.882;2024-01-25T05:55:32;102243.97;;;5.30;100.00
78016;BME280;67223;51.102;5.882;2024-01-25T05:57:57;102244.81;;;5.32;100.00
78016;BME280;67223;51.102;5.882;2024-01-25T06:00:22;102245.53;;;5.35;100.00
78016;BME280;67223;51.102;5.882;2024-01-25T06:02:48;102247.56;;;5.52;100.00
78016;BME280;67223;51.102;5.882;2024-01-25T06:05:13;102237.38;;;5.86;100.00
78016;BME280;67223;51.102;5.882;2024-01-25T06:07:39;102212.31;;;7.18;100.00
78016;BME280;67223;51.102;5.882;2024-01-25T06:10:06;102192.50;;;8.17;100.00
78016;BME280;67223;51.102;5.882;2024-01-25T06:12:31;102181.84;;;9.03;100.00
78016;BME280;67223;51.102;5.882;2024-01-25T06:14:57;102203.75;;;8.58;100.00
78016;BME280;67223;51.102;5.882;2024-01-25T06:17:22;102220.81;;;7.63;100.00
78016;BME280;67223;51.102;5.882;2024-01-25T06:19:47;102235.13;;;6.83;100.00
78016;BME280;67223;51.102;5.882;2024-01-25T06:22:13;102239.56;;;6.82;100.00
78016;BME280;67223;51.102;5.882;2024-01-25T06:24:38;102234.41;;;6.79;100.00
78016;BME280;67223;51.102;5.882;2024-01-25T06:27:04;102188.94;;;8.52;100.00
78016;BME280;67223;51.102;5.882;2024-01-25T06:29:29;102202.84;;;8.23;100.00
78016;BME280;67223;51.102;5.882;2024-01-25T06:31:55;102250.31;;;7.20;100.00
78016;BME280;67223;51.102;5.882;2024-01-25T06:34:20;102259.34;;;7.16;100.00
78016;BME280;67223;51.102;5.882;2024-01-25T06:36:45;102260.69;;;7.45;100.00
78016;BME280;67223;51.102;5.882;2024-01-25T06:39:11;102236.50;;;8.60;100.00
78016;BME280;67223;51.102;5.882;2024-01-25T06:41:36;102247.63;;;8.51;100.00
78016;BME280;67223;51.102;5.882;2024-01-25T06:44:02;102247.78;;;8.65;100.00
78016;BME280;67223;51.102;5.882;2024-01-25T06:46:28;102271.13;;;8.60;100.00
78016;BME280;67223;51.102;5.882;2024-01-25T06:48:53;102296.78;;;7.50;100.00
78016;BME280;67223;51.102;5.882;2024-01-25T06:51:19;102286.38;;;8.02;100.00
78016;BME280;67223;51.102;5.882;2024-01-25T06:53:45;102309.81;;;7.36;100.00
78016;BME280;67223;51.102;5.882;2024-01-25T06:56:10;102317.63;;;7.59;100.00
78016;BME280;67223;51.102;5.882;2024-01-25T06:58:35;102302.19;;;8.05;100.00
78016;BME280;67223;51.102;5.882;2024-01-25T07:01:01;102313.53;;;8.08;100.00
78016;BME280;67223;51.102;5.882;2024-01-25T07:03:26;102312.25;;;8.72;100.00
78016;BME280;67223;51.102;5.882;2024-01-25T07:05:52;102313.66;;;9.13;100.00
78016;BME280;67223;51.102;5.882;2024-01-25T07:08:17;102304.88;;;9.77;100.00
78016;BME280;67223;51.102;5.882;2024-01-25T07:10:44;102333.59;;;9.56;100.00
78016;BME280;67223;51.102;5.882;2024-01-25T07:13:10;102344.66;;;9.66;100.00
78016;BME280;67223;51.102;5.882;2024-01-25T07:15:35;102384.47;;;8.83;100.00
78016;BME280;67223;51.102;5.882;2024-01-25T07:18:01;102391.25;;;9.07;100.00
78016;BME280;67223;51.102;5.882;2024-01-25T07:20:26;102411.69;;;8.14;100.00
78016;BME280;67223;51.102;5.882;2024-01-25T07:22:52;102437.06;;;7.02;100.00
78016;BME280;67223;51.102;5.882;2024-01-25T07:25:17;102428.34;;;6.76;100.00
78016;BME280;67223;51.102;5.882;2024-01-25T07:27:46;102427.47;;;6.54;100.00
78016;BME280;67223;51.102;5.882;2024-01-25T07:30:12;102403.25;;;7.05;100.00
78016;BME280;67223;51.102;5.882;2024-01-25T07:32:38;102397.88;;;7.67;100.00
78016;BME280;67223;51.102;5.882;2024-01-25T07:35:06;102413.94;;;7.04;100.00
78016;BME280;67223;51.102;5.882;2024-01-25T07:37:32;102411.91;;;6.88;100.00
78016;BME280;67223;51.102;5.882;2024-01-25T07:39:57;102413.81;;;5.95;100.00
78016;BME280;67223;51.102;5.882;2024-01-25T07:42:22;102407.78;;;5.67;100.00
78016;BME280;67223;51.102;5.882;2024-01-25T07:44:48;102391.69;;;5.48;100.00
78016;BME280;67223;51.102;5.882;2024-01-25T07:47:14;102381.16;;;5.45;100.00
78016;BME280;67223;51.102;5.882;2024-01-25T07:49:40;102372.44;;;5.43;100.00
78016;BME280;67223;51.102;5.882;2024-01-25T07:52:05;102368.78;;;5.45;100.00
78016;BME280;67223;51.102;5.882;2024-01-25T07:54:31;102373.28;;;5.43;100.00
78016;BME280;67223;51.102;5.882;2024-01-25T07:56:56;102373.59;;;5.34;100.00
78016;BME280;67223;51.102;5.882;2024-01-25T07:59:21;102361.50;;;5.27;100.00
78016;BME280;67223;51.102;5.882;2024-01-25T08:01:47;102364.00;;;5.32;100.00
78016;BME280;67223;51.102;5.882;2024-01-25T08:04:12;102362.75;;;5.42;100.00
78016;BME280;67223;51.102;5.882;2024-01-25T08:06:38;102353.59;;;5.50;100.00
78016;BME280;67223;51.102;5.882;2024-01-25T08:09:03;102352.47;;;5.57;100.00
78016;BME280;67223;51.102;5.882;2024-01-25T08:11:28;102333.63;;;5.65;100.00
78016;BME280;67223;51.102;5.882;2024-01-25T08:13:54;102324.41;;;5.98;100.00
78016;BME280;67223;51.102;5.882;2024-01-25T08:16:19;102309.47;;;6.41;100.00
78016;BME280;67223;51.102;5.882;2024-01-25T08:18:46;102312.47;;;6.54;100.00
78016;BME280;67223;51.102;5.882;2024-01-25T08:21:12;102302.53;;;7.21;100.00
78016;BME280;67223;51.102;5.882;2024-01-25T08:23:38;102319.06;;;6.87;100.00
78016;BME280;67223;51.102;5.882;2024-01-25T08:26:04;102323.56;;;6.63;100.00
78016;BME280;67223;51.102;5.882;2024-01-25T08:28:30;102321.59;;;6.68;100.00
78016;BME280;67223;51.102;5.882;2024-01-25T08:30:55;102318.88;;;6.91;100.00
78016;BME280;67223;51.102;5.882;2024-01-25T08:33:21;102290.31;;;7.56;100.00
78016;BME280;67223;51.102;5.882;2024-01-25T08:35:46;102275.78;;;8.19;100.00
78016;BME280;67223;51.102;5.882;2024-01-25T08:38:11;102285.94;;;7.92;100.00
78016;BME280;67223;51.102;5.882;2024-01-25T08:40:37;102275.81;;;8.72;100.00
78016;BME280;67223;51.102;5.882;2024-01-25T08:43:03;102288.75;;;8.80;100.00
78016;BME280;67223;51.102;5.882;2024-01-25T08:45:30;102288.38;;;9.70;100.00
78016;BME280;67223;51.102;5.882;2024-01-25T08:47:55;102308.50;;;8.02;100.00
78016;BME280;67223;51.102;5.882;2024-01-25T08:50:21;102306.25;;;7.56;100.00
78016;BME280;67223;51.102;5.882;2024-01-25T08:52:46;102310.09;;;6.89;100.00
78016;BME280;67223;51.102;5.882;2024-01-25T08:55:13;102310.28;;;7.46;100.00
78016;BME280;67223;51.102;5.882;2024-01-25T08:57:39;102316.22;;;7.90;100.00
78016;BME280;67223;51.102;5.882;2024-01-25T09:00:06;102301.06;;;9.49;100.00
78016;BME280;67223;51.102;5.882;2024-01-25T09:02:38;102340.16;;;8.46;100.00
78016;BME280;67223;51.102;5.882;2024-01-25T09:05:07;102348.34;;;8.22;100.00
78016;BME280;67223;51.102;5.882;2024-01-25T09:07:32;102348.94;;;7.92;100.00
78016;BME280;67223;51.102;5.882;2024-01-25T09:09:58;102356.31;;;7.66;100.00
78016;BME280;67223;51.102;5.882;2024-01-25T09:12:23;102362.72;;;7.42;100.00
78016;BME280;67223;51.102;5.882;2024-01-25T09:14:49;102325.56;;;8.36;100.00
78016;BME280;67223;51.102;5.882;2024-01-25T09:17:14;102331.25;;;7.91;100.00
78016;BME280;67223;51.102;5.882;2024-01-25T09:19:47;102326.78;;;9.50;100.00
78016;BME280;67223;51.102;5.882;2024-01-25T09:22:12;102349.28;;;10.11;100.00
78016;BME280;67223;51.102;5.882;2024-01-25T09:24:37;102352.59;;;9.83;100.00
78016;BME280;67223;51.102;5.882;2024-01-25T09:27:05;102363.31;;;9.48;100.00
78016;BME280;67223;51.102;5.882;2024-01-25T09:29:30;102381.59;;;10.69;100.00
78016;BME280;67223;51.102;5.882;2024-01-25T09:31:56;102411.84;;;10.38;100.00
78016;BME280;67223;51.102;5.882;2024-01-25T09:34:21;102428.63;;;11.03;100.00
78016;BME280;67223;51.102;5.882;2024-01-25T09:36:46;102424.88;;;10.75;100.00
78016;BME280;67223;51.102;5.882;2024-01-25T09:39:12;102431.44;;;10.54;100.00
78016;BME280;67223;51.102;5.882;2024-01-25T09:41:39;102444.97;;;11.28;100.00
78016;BME280;67223;51.102;5.882;2024-01-25T09:44:08;102471.56;;;11.15;100.00
78016;BME280;67223;51.102;5.882;2024-01-25T09:46:33;102456.75;;;10.78;100.00
78016;BME280;67223;51.102;5.882;2024-01-25T09:49:00;102456.59;;;10.66;100.00
78016;BME280;67223;51.102;5.882;2024-01-25T09:51:26;102472.25;;;11.03;100.00
78016;BME280;67223;51.102;5.882;2024-01-25T09:53:53;102500.91;;;10.86;100.00
78016;BME280;67223;51.102;5.882;2024-01-25T09:56:20;102506.19;;;11.48;100.00
78016;BME280;67223;51.102;5.882;2024-01-25T09:58:46;102497.16;;;10.57;100.00
78016;BME280;67223;51.102;5.882;2024-01-25T10:01:14;102489.50;;;11.75;100.00
78016;BME280;67223;51.102;5.882;2024-01-25T10:03:46;102519.66;;;12.06;100.00
78016;BME280;67223;51.102;5.882;2024-01-25T10:06:12;102521.50;;;11.76;100.00
78016;BME280;67223;51.102;5.882;2024-01-25T10:08:38;102555.25;;;13.08;100.00
78016;BME280;67223;51.102;5.882;2024-01-25T10:11:04;102578.06;;;12.86;100.00
78016;BME280;67223;51.102;5.882;2024-01-25T10:13:29;102569.91;;;12.31;100.00
78016;BME280;67223;51.102;5.882;2024-01-25T10:15:55;102588.88;;;12.57;100.00
78016;BME280;67223;51.102;5.882;2024-01-25T10:18:25;102595.00;;;12.73;100.00
78016;BME280;67223;51.102;5.882;2024-01-25T10:20:53;102581.03;;;11.95;100.00
78016;BME280;67223;51.102;5.882;2024-01-25T10:23:18;102581.75;;;11.52;100.00
78016;BME280;67223;51.102;5.882;2024-01-25T10:25:44;102550.56;;;10.90;100.00
78016;BME280;67223;51.102;5.882;2024-01-25T10:28:09;102546.34;;;9.51;100.00
78016;BME280;67223;51.102;5.882;2024-01-25T10:30:35;102491.38;;;11.11;100.00
78016;BME280;67223;51.102;5.882;2024-01-25T10:33:02;102492.31;;;8.93;100.00
78016;BME280;67223;51.102;5.882;2024-01-25T10:35:28;102475.34;;;9.66;100.00
78016;BME280;67223;51.102;5.882;2024-01-25T10:37:54;102463.72;;;10.34;100.00
78016;BME280;67223;51.102;5.882;2024-01-25T10:40:20;102475.38;;;11.71;100.00
78016;BME280;67223;51.102;5.882;2024-01-25T10:42:46;102486.28;;;9.94;100.00
78016;BME280;67223;51.102;5.882;2024-01-25T10:45:12;102473.13;;;8.86;100.00
78016;BME280;67223;51.102;5.882;2024-01-25T10:47:38;102448.88;;;8.55;100.00
78016;BME280;67223;51.102;5.882;2024-01-25T10:50:06;102432.88;;;8.74;100.00
78016;BME280;67223;51.102;5.882;2024-01-25T10:52:34;102425.25;;;8.47;100.00
78016;BME280;67223;51.102;5.882;2024-01-25T10:55:01;102407.97;;;8.18;100.00
78016;BME280;67223;51.102;5.882;2024-01-25T10:57:35;102376.53;;;9.34;100.00
78016;BME280;67223;51.102;5.882;2024-01-25T11:00:01;102372.75;;;9.04;100.00
78016;BME280;67223;51.102;5.882;2024-01-25T11:02:29;102370.44;;;8.43;100.00
78016;BME280;67223;51.102;5.882;2024-01-25T11:04:54;102360.56;;;8.64;100.00
78016;BME280;67223;51.102;5.882;2024-01-25T11:07:20;102358.69;;;8.47;100.00
78016;BME280;67223;51.102;5.882;2024-01-25T11:09:47;102353.81;;;8.19;100.00
78016;BME280;67223;51.102;5.882;2024-01-25T11:12:17;102335.88;;;9.46;100.00
78016;BME280;67223;51.102;5.882;2024-01-25T11:14:43;102329.94;;;9.07;100.00
78016;BME280;67223;51.102;5.882;2024-01-25T11:17:35;102329.00;;;8.56;100.00
78016;BME280;67223;51.102;5.882;2024-01-25T11:20:02;102322.69;;;8.57;100.00
78016;BME280;67223;51.102;5.882;2024-01-25T11:22:35;102293.81;;;9.51;100.00
78016;BME280;67223;51.102;5.882;2024-01-25T11:25:12;102309.91;;;9.83;100.00
78016;BME280;67223;51.102;5.882;2024-01-25T11:27:37;102302.56;;;10.81;100.00
78016;BME280;67223;51.102;5.882;2024-01-25T11:30:07;102327.34;;;10.21;100.00
78016;BME280;67223;51.102;5.882;2024-01-25T11:32:33;102329.13;;;11.42;100.00
78016;BME280;67223;51.102;5.882;2024-01-25T11:34:59;102362.31;;;10.17;100.00
78016;BME280;67223;51.102;5.882;2024-01-25T11:37:24;102349.06;;;9.49;100.00
78016;BME280;67223;51.102;5.882;2024-01-25T11:39:50;102341.88;;;9.17;100.00
78016;BME280;67223;51.102;5.882;2024-01-25T11:42:16;102324.63;;;9.24;100.00
78016;BME280;67223;51.102;5.882;2024-01-25T11:44:41;102295.19;;;9.43;100.00
78016;BME280;67223;51.102;5.882;2024-01-25T11:47:07;102299.41;;;10.11;100.00
78016;BME280;67223;51.102;5.882;2024-01-25T11:49:34;102315.16;;;11.37;100.00
78016;BME280;67223;51.102;5.882;2024-01-25T11:52:00;102350.72;;;11.53;100.00
78016;BME280;67223;51.102;5.882;2024-01-25T11:54:27;102355.94;;;10.96;100.00
78016;BME280;67223;51.102;5.882;2024-01-25T11:56:53;102356.78;;;10.67;100.00
78016;BME280;67223;51.102;5.882;2024-01-25T11:59:18;102340.22;;;9.98;100.00
78016;BME280;67223;51.102;5.882;2024-01-25T12:01:44;102329.84;;;10.40;100.00
78016;BME280;67223;51.102;5.882;2024-01-25T12:04:10;102336.00;;;11.02;100.00
78016;BME280;67223;51.102;5.882;2024-01-25T12:06:35;102347.41;;;11.63;100.00
78016;BME280;67223;51.102;5.882;2024-01-25T12:09:10;102366.00;;;11.95;100.00
78016;BME280;67223;51.102;5.882;2024-01-25T12:11:36;102377.16;;;11.73;100.00
78016;BME280;67223;51.102;5.882;2024-01-25T12:14:02;102373.13;;;10.92;100.00
78016;BME280;67223;51.102;5.882;2024-01-25T12:16:28;102388.16;;;12.25;100.00
78016;BME280;67223;51.102;5.882;2024-01-25T12:18:54;102393.75;;;11.64;100.00
78016;BME280;67223;51.102;5.882;2024-01-25T12:21:19;102389.69;;;12.29;100.00
78016;BME280;67223;51.102;5.882;2024-01-25T12:23:44;102402.00;;;12.32;100.00
78016;BME280;67223;51.102;5.882;2024-01-25T12:26:10;102387.97;;;12.00;100.00
78016;BME280;67223;51.102;5.882;2024-01-25T12:28:37;102380.41;;;11.92;100.00
78016;BME280;67223;51.102;5.882;2024-01-25T12:31:04;102392.47;;;11.85;100.00
78016;BME280;67223;51.102;5.882;2024-01-25T12:33:30;102378.03;;;11.30;100.00
78016;BME280;67223;51.102;5.882;2024-01-25T12:35:56;102362.00;;;11.44;100.00
78016;BME280;67223;51.102;5.882;2024-01-25T12:38:22;102364.13;;;11.09;100.00
78016;BME280;67223;51.102;5.882;2024-01-25T12:40:48;102361.91;;;11.45;100.00
78016;BME280;67223;51.102;5.882;2024-01-25T12:43:15;102347.09;;;11.40;100.00